sensor_id;sensor_type;location;lat;lon;timestamp;P1;durP1;ratioP1;P2;durP2;ratioP2
51312;SDS011;37397;53.226;10.400;2023-04-24T00:01:04;5.97;;;3.90;;
51312;SDS011;37397;53.226;10.400;2023-04-24T00:03:33;4.57;;;3.38;;
51312;SDS011;37397;53.226;10.400;2023-04-24T00:06:01;6.05;;;3.85;;
51312;SDS011;37397;53.226;10.400;2023-04-24T00:08:28;7.35;;;3.88;;
51312;SDS011;37397;53.226;10.400;2023-04-24T00:10:55;5.50;;;3.42;;
51312;SDS011;37397;53.226;10.400;2023-04-24T00:13:21;6.00;;;3.45;;
51312;SDS011;37397;53.226;10.400;2023-04-24T00:15:48;5.75;;;3.90;;
51312;SDS011;37397;53.226;10.400;2023-04-24T00:18:14;4.68;;;3.42;;
51312;SDS011;37397;53.226;10.400;2023-04-24T00:20:41;5.78;;;3.60;;
51312;SDS011;37397;53.226;10.400;2023-04-24T00:23:09;5.88;;;3.78;;
51312;SDS011;37397;53.226;10.400;2023-04-24T00:25:36;4.65;;;3.55;;
51312;SDS011;37397;53.226;10.400;2023-04-24T00:28:02;5.50;;;3.63;;
51312;SDS011;37397;53.226;10.400;2023-04-24T00:30:29;6.75;;;3.70;;
51312;SDS011;37397;53.226;10.400;2023-04-24T00:32:55;5.95;;;3.60;;
51312;SDS011;37397;53.226;10.400;2023-04-24T00:35:22;4.28;;;3.28;;
51312;SDS011;37397;53.226;10.400;2023-04-24T00:37:49;5.38;;;3.88;;
51312;SDS011;37397;53.226;10.400;2023-04-24T00:40:16;4.53;;;3.50;;
51312;SDS011;37397;53.226;10.400;2023-04-24T00:42:43;4.63;;;3.50;;
51312;SDS011;37397;53.226;10.400;2023-04-24T00:45:10;5.78;;;3.40;;
51312;SDS011;37397;53.226;10.400;2023-04-24T00:47:36;5.13;;;3.25;;
51312;SDS011;37397;53.226;10.400;2023-04-24T00:50:04;6.32;;;3.90;;
51312;SDS011;37397;53.226;10.400;2023-04-24T00:52:33;5.32;;;3.58;;
51312;SDS011;37397;53.226;10.400;2023-04-24T00:54:59;6.10;;;3.60;;
51312;SDS011;37397;53.226;10.400;2023-04-24T00:57:26;5.50;;;3.30;;
51312;SDS011;37397;53.226;10.400;2023-04-24T00:59:53;6.13;;;3.67;;
51312;SDS011;37397;53.226;10.400;2023-04-24T01:02:21;4.75;;;3.67;;
51312;SDS011;37397;53.226;10.400;2023-04-24T01:04:49;7.10;;;3.70;;
51312;SDS011;37397;53.226;10.400;2023-04-24T01:07:20;5.68;;;3.45;;
51312;SDS011;37397;53.226;10.400;2023-04-24T01:09:47;6.82;;;3.60;;
51312;SDS011;37397;53.226;10.400;2023-04-24T01:12:15;5.75;;;3.53;;
51312;SDS011;37397;53.226;10.400;2023-04-24T01:14:43;5.30;;;3.60;;
51312;SDS011;37397;53.226;10.400;2023-04-24T01:17:10;5.53;;;3.30;;
51312;SDS011;37397;53.226;10.400;2023-04-24T01:19:37;5.93;;;3.65;;
51312;SDS011;37397;53.226;10.400;2023-04-24T01:22:08;4.95;;;3.10;;
51312;SDS011;37397;53.226;10.400;2023-04-24T01:24:38;5.70;;;3.50;;
51312;SDS011;37397;53.226;10.400;2023-04-24T01:27:05;6.03;;;3.35;;
51312;SDS011;37397;53.226;10.400;2023-04-24T01:29:32;5.15;;;3.28;;
51312;SDS011;37397;53.226;10.400;2023-04-24T01:31:58;6.07;;;3.33;;
51312;SDS011;37397;53.226;10.400;2023-04-24T01:34:26;3.80;;;2.85;;
51312;SDS011;37397;53.226;10.400;2023-04-24T01:36:53;5.80;;;3.45;;
51312;SDS011;37397;53.226;10.400;2023-04-24T01:39:19;5.20;;;3.20;;
51312;SDS011;37397;53.226;10.400;2023-04-24T01:41:46;5.72;;;3.42;;
51312;SDS011;37397;53.226;10.400;2023-04-24T01:44:13;4.75;;;3.20;;
51312;SDS011;37397;53.226;10.400;2023-04-24T01:46:40;3.90;;;2.80;;
51312;SDS011;37397;53.226;10.400;2023-04-24T01:49:07;4.63;;;2.78;;
51312;SDS011;37397;53.226;10.400;2023-04-24T01:51:34;6.43;;;3.15;;
51312;SDS011;37397;53.226;10.400;2023-04-24T01:54:02;3.67;;;2.60;;
51312;SDS011;37397;53.226;10.400;2023-04-24T01:56:29;4.47;;;2.90;;
51312;SDS011;37397;53.226;10.400;2023-04-24T01:58:59;2.90;;;2.30;;
51312;SDS011;37397;53.226;10.400;2023-04-24T02:01:26;3.95;;;2.00;;
51312;SDS011;37397;53.226;10.400;2023-04-24T02:03:53;4.47;;;2.22;;
51312;SDS011;37397;53.226;10.400;2023-04-24T02:06:19;4.82;;;2.10;;
51312;SDS011;37397;53.226;10.400;2023-04-24T02:08:46;3.53;;;2.00;;
51312;SDS011;37397;53.226;10.400;2023-04-24T02:11:12;3.42;;;2.25;;
51312;SDS011;37397;53.226;10.400;2023-04-24T02:13:39;2.95;;;2.10;;
51312;SDS011;37397;53.226;10.400;2023-04-24T02:16:06;3.97;;;2.10;;
51312;SDS011;37397;53.226;10.400;2023-04-24T02:18:32;2.72;;;2.03;;
51312;SDS011;37397;53.226;10.400;2023-04-24T02:20:59;2.38;;;2.08;;
51312;SDS011;37397;53.226;10.400;2023-04-24T02:23:25;3.67;;;1.95;;
51312;SDS011;37397;53.226;10.400;2023-04-24T02:25:53;3.50;;;1.90;;
51312;SDS011;37397;53.226;10.400;2023-04-24T02:28:20;2.28;;;1.90;;
51312;SDS011;37397;53.226;10.400;2023-04-24T02:30:49;4.80;;;2.10;;
51312;SDS011;37397;53.226;10.400;2023-04-24T02:33:16;3.40;;;2.10;;
51312;SDS011;37397;53.226;10.400;2023-04-24T02:35:43;3.35;;;1.88;;
51312;SDS011;37397;53.226;10.400;2023-04-24T02:38:09;2.85;;;1.70;;
51312;SDS011;37397;53.226;10.400;2023-04-24T02:40:36;2.60;;;1.98;;
51312;SDS011;37397;53.226;10.400;2023-04-24T02:43:03;2.90;;;1.85;;
51312;SDS011;37397;53.226;10.400;2023-04-24T02:45:29;2.88;;;1.77;;
51312;SDS011;37397;53.226;10.400;2023-04-24T02:47:56;2.33;;;1.65;;
51312;SDS011;37397;53.226;10.400;2023-04-24T02:50:22;3.55;;;1.50;;
51312;SDS011;37397;53.226;10.400;2023-04-24T02:52:49;2.30;;;1.80;;
51312;SDS011;37397;53.226;10.400;2023-04-24T02:55:16;2.75;;;1.75;;
51312;SDS011;37397;53.226;10.400;2023-04-24T02:57:43;2.70;;;1.50;;
51312;SDS011;37397;53.226;10.400;2023-04-24T03:00:10;2.88;;;1.60;;
51312;SDS011;37397;53.226;10.400;2023-04-24T03:02:37;2.65;;;1.60;;
51312;SDS011;37397;53.226;10.400;2023-04-24T03:05:04;2.13;;;1.50;;
51312;SDS011;37397;53.226;10.400;2023-04-24T03:07:31;1.70;;;1.60;;
51312;SDS011;37397;53.226;10.400;2023-04-24T03:09:58;3.22;;;1.77;;
51312;SDS011;37397;53.226;10.400;2023-04-24T03:12:25;3.38;;;1.70;;
51312;SDS011;37397;53.226;10.400;2023-04-24T03:14:52;3.85;;;1.90;;
51312;SDS011;37397;53.226;10.400;2023-04-24T03:17:19;1.88;;;1.60;;
51312;SDS011;37397;53.226;10.400;2023-04-24T03:19:45;1.95;;;1.50;;
51312;SDS011;37397;53.226;10.400;2023-04-24T03:22:12;2.03;;;1.40;;
51312;SDS011;37397;53.226;10.400;2023-04-24T03:24:39;4.18;;;1.52;;
51312;SDS011;37397;53.226;10.400;2023-04-24T03:27:06;2.33;;;1.67;;
51312;SDS011;37397;53.226;10.400;2023-04-24T03:29:46;4.00;;;1.80;;
51312;SDS011;37397;53.226;10.400;2023-04-24T03:32:15;2.53;;;1.48;;
51312;SDS011;37397;53.226;10.400;2023-04-24T03:34:42;1.58;;;1.42;;
51312;SDS011;37397;53.226;10.400;2023-04-24T03:37:10;2.58;;;1.40;;
51312;SDS011;37397;53.226;10.400;2023-04-24T03:39:42;2.45;;;1.40;;
51312;SDS011;37397;53.226;10.400;2023-04-24T03:42:10;2.15;;;1.55;;
51312;SDS011;37397;53.226;10.400;2023-04-24T03:44:48;1.67;;;1.38;;
51312;SDS011;37397;53.226;10.400;2023-04-24T03:47:15;1.67;;;1.40;;
51312;SDS011;37397;53.226;10.400;2023-04-24T03:49:42;2.10;;;1.30;;
51312;SDS011;37397;53.226;10.400;2023-04-24T03:52:09;1.83;;;1.20;;
51312;SDS011;37397;53.226;10.400;2023-04-24T03:54:36;2.15;;;1.60;;
51312;SDS011;37397;53.226;10.400;2023-04-24T03:57:04;3.17;;;1.30;;
51312;SDS011;37397;53.226;10.400;2023-04-24T03:59:32;2.22;;;1.35;;
51312;SDS011;37397;53.226;10.400;2023-04-24T04:02:08;2.15;;;1.17;;
51312;SDS011;37397;53.226;10.400;2023-04-24T04:04:36;1.60;;;1.38;;
51312;SDS011;37397;53.226;10.400;2023-04-24T04:07:03;2.22;;;1.38;;
51312;SDS011;37397;53.226;10.400;2023-04-24T04:09:31;2.75;;;1.15;;
51312;SDS011;37397;53.226;10.400;2023-04-24T04:11:59;2.08;;;1.48;;
51312;SDS011;37397;53.226;10.400;2023-04-24T04:14:28;5.00;;;1.35;;
51312;SDS011;37397;53.226;10.400;2023-04-24T04:16:54;1.80;;;1.45;;
51312;SDS011;37397;53.226;10.400;2023-04-24T04:19:21;1.52;;;1.10;;
51312;SDS011;37397;53.226;10.400;2023-04-24T04:21:48;1.38;;;1.27;;
51312;SDS011;37397;53.226;10.400;2023-04-24T04:24:27;2.38;;;1.30;;
51312;SDS011;37397;53.226;10.400;2023-04-24T04:26:57;2.63;;;1.38;;
51312;SDS011;37397;53.226;10.400;2023-04-24T04:29:28;1.73;;;1.20;;
51312;SDS011;37397;53.226;10.400;2023-04-24T04:31:55;2.05;;;1.25;;
51312;SDS011;37397;53.226;10.400;2023-04-24T04:34:22;2.30;;;1.23;;
51312;SDS011;37397;53.226;10.400;2023-04-24T04:36:50;2.13;;;1.25;;
51312;SDS011;37397;53.226;10.400;2023-04-24T04:39:26;1.30;;;1.20;;
51312;SDS011;37397;53.226;10.400;2023-04-24T04:42:06;2.03;;;1.23;;
51312;SDS011;37397;53.226;10.400;2023-04-24T04:44:39;1.33;;;1.10;;
51312;SDS011;37397;53.226;10.400;2023-04-24T04:47:10;1.48;;;1.20;;
51312;SDS011;37397;53.226;10.400;2023-04-24T04:49:40;1.30;;;1.20;;
51312;SDS011;37397;53.226;10.400;2023-04-24T04:54:45;2.33;;;1.15;;
51312;SDS011;37397;53.226;10.400;2023-04-24T04:57:12;2.10;;;1.20;;
51312;SDS011;37397;53.226;10.400;2023-04-24T04:59:40;2.10;;;1.20;;
51312;SDS011;37397;53.226;10.400;2023-04-24T05:02:13;1.33;;;1.20;;
51312;SDS011;37397;53.226;10.400;2023-04-24T05:04:40;1.35;;;1.25;;
51312;SDS011;37397;53.226;10.400;2023-04-24T05:07:07;1.95;;;1.02;;
51312;SDS011;37397;53.226;10.400;2023-04-24T05:09:37;2.30;;;1.20;;
51312;SDS011;37397;53.226;10.400;2023-04-24T05:12:05;1.70;;;1.35;;
51312;SDS011;37397;53.226;10.400;2023-04-24T05:14:36;3.05;;;1.50;;
51312;SDS011;37397;53.226;10.400;2023-04-24T05:17:03;2.05;;;1.30;;
51312;SDS011;37397;53.226;10.400;2023-04-24T05:19:31;2.40;;;1.60;;
51312;SDS011;37397;53.226;10.400;2023-04-24T05:22:02;2.13;;;1.50;;
51312;SDS011;37397;53.226;10.400;2023-04-24T05:24:32;1.48;;;1.23;;
51312;SDS011;37397;53.226;10.400;2023-04-24T05:27:09;3.13;;;1.35;;
51312;SDS011;37397;53.226;10.400;2023-04-24T05:29:39;1.73;;;1.35;;
51312;SDS011;37397;53.226;10.400;2023-04-24T05:32:07;3.00;;;1.40;;
51312;SDS011;37397;53.226;10.400;2023-04-24T05:34:34;1.40;;;1.30;;
51312;SDS011;37397;53.226;10.400;2023-04-24T05:37:01;3.80;;;1.60;;
51312;SDS011;37397;53.226;10.400;2023-04-24T05:39:28;1.80;;;1.30;;
51312;SDS011;37397;53.226;10.400;2023-04-24T05:41:55;1.30;;;1.20;;
51312;SDS011;37397;53.226;10.400;2023-04-24T05:44:24;2.20;;;1.50;;
51312;SDS011;37397;53.226;10.400;2023-04-24T05:46:50;2.85;;;1.42;;
51312;SDS011;37397;53.226;10.400;2023-04-24T05:49:17;3.45;;;1.30;;
51312;SDS011;37397;53.226;10.400;2023-04-24T05:51:45;2.47;;;1.40;;
51312;SDS011;37397;53.226;10.400;2023-04-24T05:54:11;1.95;;;1.30;;
51312;SDS011;37397;53.226;10.400;2023-04-24T05:56:38;1.95;;;1.30;;
51312;SDS011;37397;53.226;10.400;2023-04-24T05:59:09;3.03;;;1.60;;
51312;SDS011;37397;53.226;10.400;2023-04-24T06:01:36;3.17;;;1.70;;
51312;SDS011;37397;53.226;10.400;2023-04-24T06:04:12;2.42;;;1.60;;
51312;SDS011;37397;53.226;10.400;2023-04-24T06:06:42;3.45;;;1.52;;
51312;SDS011;37397;53.226;10.400;2023-04-24T06:09:09;1.52;;;1.42;;
51312;SDS011;37397;53.226;10.400;2023-04-24T06:11:35;1.50;;;1.40;;
51312;SDS011;37397;53.226;10.400;2023-04-24T06:14:02;4.55;;;1.60;;
51312;SDS011;37397;53.226;10.400;2023-04-24T06:16:49;2.75;;;1.50;;
51312;SDS011;37397;53.226;10.400;2023-04-24T06:19:28;1.65;;;1.35;;
51312;SDS011;37397;53.226;10.400;2023-04-24T06:21:55;2.08;;;1.40;;
51312;SDS011;37397;53.226;10.400;2023-04-24T06:24:22;3.00;;;1.50;;
51312;SDS011;37397;53.226;10.400;2023-04-24T06:26:50;2.53;;;1.70;;
51312;SDS011;37397;53.226;10.400;2023-04-24T06:29:17;1.83;;;1.45;;
51312;SDS011;37397;53.226;10.400;2023-04-24T06:31:43;2.35;;;1.60;;
51312;SDS011;37397;53.226;10.400;2023-04-24T06:34:10;1.50;;;1.40;;
51312;SDS011;37397;53.226;10.400;2023-04-24T06:36:36;2.25;;;1.30;;
51312;SDS011;37397;53.226;10.400;2023-04-24T06:39:03;1.98;;;1.42;;
51312;SDS011;37397;53.226;10.400;2023-04-24T06:41:30;1.40;;;1.30;;
51312;SDS011;37397;53.226;10.400;2023-04-24T06:43:57;2.38;;;1.33;;
51312;SDS011;37397;53.226;10.400;2023-04-24T06:46:23;2.65;;;1.20;;
51312;SDS011;37397;53.226;10.400;2023-04-24T06:48:52;1.67;;;1.55;;
51312;SDS011;37397;53.226;10.400;2023-04-24T06:51:23;1.70;;;1.20;;
51312;SDS011;37397;53.226;10.400;2023-04-24T06:53:51;2.88;;;1.50;;
51312;SDS011;37397;53.226;10.400;2023-04-24T06:56:18;1.45;;;1.20;;
51312;SDS011;37397;53.226;10.400;2023-04-24T06:58:46;1.75;;;1.23;;
51312;SDS011;37397;53.226;10.400;2023-04-24T07:01:12;1.25;;;1.13;;
51312;SDS011;37397;53.226;10.400;2023-04-24T07:03:39;3.42;;;1.63;;
51312;SDS011;37397;53.226;10.400;2023-04-24T07:06:06;4.00;;;1.30;;
51312;SDS011;37397;53.226;10.400;2023-04-24T07:08:33;1.92;;;1.65;;
51312;SDS011;37397;53.226;10.400;2023-04-24T07:10:59;1.20;;;1.00;;
51312;SDS011;37397;53.226;10.400;2023-04-24T07:13:26;2.13;;;1.25;;
51312;SDS011;37397;53.226;10.400;2023-04-24T07:15:53;1.50;;;1.30;;
51312;SDS011;37397;53.226;10.400;2023-04-24T07:18:21;2.42;;;1.45;;
51312;SDS011;37397;53.226;10.400;2023-04-24T07:20:49;2.08;;;1.30;;
51312;SDS011;37397;53.226;10.400;2023-04-24T07:23:19;1.35;;;1.10;;
51312;SDS011;37397;53.226;10.400;2023-04-24T07:25:45;1.48;;;1.15;;
51312;SDS011;37397;53.226;10.400;2023-04-24T07:28:12;2.45;;;1.52;;
51312;SDS011;37397;53.226;10.400;2023-04-24T07:30:39;1.55;;;1.10;;
51312;SDS011;37397;53.226;10.400;2023-04-24T07:33:06;1.27;;;1.17;;
51312;SDS011;37397;53.226;10.400;2023-04-24T07:35:33;1.13;;;0.98;;
51312;SDS011;37397;53.226;10.400;2023-04-24T07:38:00;2.67;;;1.48;;
51312;SDS011;37397;53.226;10.400;2023-04-24T07:40:27;2.10;;;1.30;;
51312;SDS011;37397;53.226;10.400;2023-04-24T07:42:53;2.58;;;1.38;;
51312;SDS011;37397;53.226;10.400;2023-04-24T07:45:20;2.65;;;1.10;;
51312;SDS011;37397;53.226;10.400;2023-04-24T07:47:46;2.15;;;1.40;;
51312;SDS011;37397;53.226;10.400;2023-04-24T07:50:13;1.40;;;1.30;;
51312;SDS011;37397;53.226;10.400;2023-04-24T07:52:40;7.05;;;2.20;;
51312;SDS011;37397;53.226;10.400;2023-04-24T07:55:06;10.10;;;2.65;;
51312;SDS011;37397;53.226;10.400;2023-04-24T07:57:33;9.25;;;2.00;;
51312;SDS011;37397;53.226;10.400;2023-04-24T08:00:00;10.35;;;2.45;;
51312;SDS011;37397;53.226;10.400;2023-04-24T08:02:36;9.18;;;2.15;;
51312;SDS011;37397;53.226;10.400;2023-04-24T08:05:03;5.43;;;1.80;;
51312;SDS011;37397;53.226;10.400;2023-04-24T08:07:30;3.30;;;1.77;;
51312;SDS011;37397;53.226;10.400;2023-04-24T08:09:57;5.07;;;1.80;;
51312;SDS011;37397;53.226;10.400;2023-04-24T08:12:25;6.10;;;2.00;;
51312;SDS011;37397;53.226;10.400;2023-04-24T08:14:52;4.45;;;2.10;;
51312;SDS011;37397;53.226;10.400;2023-04-24T08:17:18;4.35;;;2.00;;
51312;SDS011;37397;53.226;10.400;2023-04-24T08:19:45;5.15;;;1.75;;
51312;SDS011;37397;53.226;10.400;2023-04-24T08:22:14;4.72;;;1.50;;
51312;SDS011;37397;53.226;10.400;2023-04-24T08:24:41;3.90;;;1.58;;
51312;SDS011;37397;53.226;10.400;2023-04-24T08:27:08;4.93;;;1.90;;
51312;SDS011;37397;53.226;10.400;2023-04-24T08:29:35;4.15;;;1.90;;
51312;SDS011;37397;53.226;10.400;2023-04-24T08:32:02;2.10;;;1.40;;
51312;SDS011;37397;53.226;10.400;2023-04-24T08:34:29;3.22;;;1.70;;
51312;SDS011;37397;53.226;10.400;2023-04-24T08:36:56;3.72;;;2.00;;
51312;SDS011;37397;53.226;10.400;2023-04-24T08:39:23;2.97;;;1.90;;
51312;SDS011;37397;53.226;10.400;2023-04-24T08:41:49;2.55;;;1.80;;
51312;SDS011;37397;53.226;10.400;2023-04-24T08:44:17;3.83;;;1.90;;
51312;SDS011;37397;53.226;10.400;2023-04-24T08:46:43;2.92;;;1.83;;
51312;SDS011;37397;53.226;10.400;2023-04-24T08:49:13;2.30;;;1.80;;
51312;SDS011;37397;53.226;10.400;2023-04-24T08:51:40;2.20;;;1.60;;
51312;SDS011;37397;53.226;10.400;2023-04-24T08:54:07;3.00;;;1.77;;
51312;SDS011;37397;53.226;10.400;2023-04-24T08:56:34;2.42;;;1.80;;
51312;SDS011;37397;53.226;10.400;2023-04-24T08:59:06;4.55;;;2.00;;
51312;SDS011;37397;53.226;10.400;2023-04-24T09:01:33;3.00;;;2.08;;
51312;SDS011;37397;53.226;10.400;2023-04-24T09:04:02;4.20;;;2.38;;
51312;SDS011;37397;53.226;10.400;2023-04-24T09:06:30;4.38;;;2.80;;
51312;SDS011;37397;53.226;10.400;2023-04-24T09:09:00;7.32;;;3.30;;
51312;SDS011;37397;53.226;10.400;2023-04-24T09:11:27;5.88;;;3.42;;
51312;SDS011;37397;53.226;10.400;2023-04-24T09:13:54;6.97;;;3.53;;
51312;SDS011;37397;53.226;10.400;2023-04-24T09:16:21;6.13;;;3.67;;
51312;SDS011;37397;53.226;10.400;2023-04-24T09:18:50;6.80;;;3.47;;
51312;SDS011;37397;53.226;10.400;2023-04-24T09:21:16;6.20;;;4.00;;
51312;SDS011;37397;53.226;10.400;2023-04-24T09:23:43;6.95;;;4.18;;
51312;SDS011;37397;53.226;10.400;2023-04-24T09:26:10;6.85;;;3.97;;
51312;SDS011;37397;53.226;10.400;2023-04-24T09:28:38;7.18;;;4.22;;
51312;SDS011;37397;53.226;10.400;2023-04-24T09:31:13;6.47;;;4.35;;
51312;SDS011;37397;53.226;10.400;2023-04-24T09:33:53;9.25;;;4.43;;
51312;SDS011;37397;53.226;10.400;2023-04-24T09:36:36;7.95;;;4.57;;
51312;SDS011;37397;53.226;10.400;2023-04-24T09:39:05;6.97;;;4.53;;
51312;SDS011;37397;53.226;10.400;2023-04-24T09:41:47;5.85;;;4.15;;
51312;SDS011;37397;53.226;10.400;2023-04-24T09:44:27;10.05;;;4.50;;
51312;SDS011;37397;53.226;10.400;2023-04-24T09:46:55;8.95;;;4.50;;
51312;SDS011;37397;53.226;10.400;2023-04-24T09:49:23;8.27;;;4.60;;
51312;SDS011;37397;53.226;10.400;2023-04-24T09:51:51;7.90;;;4.70;;
51312;SDS011;37397;53.226;10.400;2023-04-24T09:54:19;7.15;;;4.65;;
51312;SDS011;37397;53.226;10.400;2023-04-24T09:56:48;6.32;;;4.50;;
51312;SDS011;37397;53.226;10.400;2023-04-24T09:59:17;6.65;;;4.32;;
51312;SDS011;37397;53.226;10.400;2023-04-24T10:01:45;8.60;;;4.70;;
51312;SDS011;37397;53.226;10.400;2023-04-24T10:04:18;6.97;;;4.50;;
51312;SDS011;37397;53.226;10.400;2023-04-24T10:06:50;7.75;;;4.25;;
51312;SDS011;37397;53.226;10.400;2023-04-24T10:09:20;8.75;;;5.05;;
51312;SDS011;37397;53.226;10.400;2023-04-24T10:11:50;9.52;;;4.85;;
51312;SDS011;37397;53.226;10.400;2023-04-24T10:14:19;8.75;;;5.28;;
51312;SDS011;37397;53.226;10.400;2023-04-24T10:16:47;7.05;;;4.85;;
51312;SDS011;37397;53.226;10.400;2023-04-24T10:19:15;7.90;;;5.63;;
51312;SDS011;37397;53.226;10.400;2023-04-24T10:21:45;9.50;;;5.18;;
51312;SDS011;37397;53.226;10.400;2023-04-24T10:24:15;10.35;;;5.68;;
51312;SDS011;37397;53.226;10.400;2023-04-24T10:26:44;10.15;;;5.57;;
51312;SDS011;37397;53.226;10.400;2023-04-24T10:29:12;8.45;;;5.68;;
51312;SDS011;37397;53.226;10.400;2023-04-24T10:31:41;9.45;;;5.38;;
51312;SDS011;37397;53.226;10.400;2023-04-24T10:34:11;8.90;;;5.63;;
51312;SDS011;37397;53.226;10.400;2023-04-24T10:36:39;10.15;;;5.75;;
51312;SDS011;37397;53.226;10.400;2023-04-24T10:39:10;10.48;;;6.18;;
51312;SDS011;37397;53.226;10.400;2023-04-24T10:41:38;8.10;;;5.75;;
51312;SDS011;37397;53.226;10.400;2023-04-24T10:46:37;9.75;;;5.80;;
51312;SDS011;37397;53.226;10.400;2023-04-24T10:49:05;8.15;;;5.10;;
51312;SDS011;37397;53.226;10.400;2023-04-24T10:51:47;10.43;;;5.53;;
51312;SDS011;37397;53.226;10.400;2023-04-24T10:57:42;7.72;;;4.90;;
51312;SDS011;37397;53.226;10.400;2023-04-24T10:59:46;6.97;;;4.63;;
51312;SDS011;37397;53.226;10.400;2023-04-24T11:02:15;8.48;;;5.07;;
51312;SDS011;37397;53.226;10.400;2023-04-24T11:04:42;8.75;;;5.22;;
51312;SDS011;37397;53.226;10.400;2023-04-24T11:07:09;12.00;;;6.00;;
51312;SDS011;37397;53.226;10.400;2023-04-24T11:09:37;10.35;;;5.90;;
51312;SDS011;37397;53.226;10.400;2023-04-24T11:12:07;9.05;;;5.03;;
51312;SDS011;37397;53.226;10.400;2023-04-24T11:17:35;7.22;;;4.90;;
51312;SDS011;37397;53.226;10.400;2023-04-24T11:20:05;8.35;;;4.20;;
51312;SDS011;37397;53.226;10.400;2023-04-24T11:22:52;8.43;;;4.53;;
51312;SDS011;37397;53.226;10.400;2023-04-24T11:25:24;7.18;;;4.18;;
51312;SDS011;37397;53.226;10.400;2023-04-24T11:27:52;7.38;;;4.38;;
51312;SDS011;37397;53.226;10.400;2023-04-24T11:30:30;7.50;;;3.90;;
51312;SDS011;37397;53.226;10.400;2023-04-24T11:33:04;7.60;;;3.60;;
51312;SDS011;37397;53.226;10.400;2023-04-24T11:35:35;5.90;;;3.60;;
51312;SDS011;37397;53.226;10.400;2023-04-24T11:38:06;9.38;;;3.60;;
51312;SDS011;37397;53.226;10.400;2023-04-24T11:40:36;6.80;;;3.50;;
51312;SDS011;37397;53.226;10.400;2023-04-24T11:43:04;6.13;;;3.70;;
51312;SDS011;37397;53.226;10.400;2023-04-24T11:45:33;4.28;;;3.08;;
51312;SDS011;37397;53.226;10.400;2023-04-24T11:48:00;9.25;;;3.70;;
51312;SDS011;37397;53.226;10.400;2023-04-24T11:50:27;5.43;;;3.35;;
51312;SDS011;37397;53.226;10.400;2023-04-24T11:52:55;4.32;;;2.90;;
51312;SDS011;37397;53.226;10.400;2023-04-24T11:57:49;6.25;;;3.85;;
51312;SDS011;37397;53.226;10.400;2023-04-24T12:03:07;7.47;;;3.88;;
51312;SDS011;37397;53.226;10.400;2023-04-24T12:05:35;5.03;;;3.30;;
51312;SDS011;37397;53.226;10.400;2023-04-24T12:08:02;4.75;;;3.33;;
51312;SDS011;37397;53.226;10.400;2023-04-24T12:10:30;6.15;;;3.30;;
51312;SDS011;37397;53.226;10.400;2023-04-24T12:12:58;5.40;;;3.60;;
51312;SDS011;37397;53.226;10.400;2023-04-24T12:15:26;6.20;;;3.22;;
51312;SDS011;37397;53.226;10.400;2023-04-24T12:17:53;5.60;;;3.13;;
51312;SDS011;37397;53.226;10.400;2023-04-24T12:20:31;5.05;;;3.05;;
51312;SDS011;37397;53.226;10.400;2023-04-24T12:22:59;5.70;;;3.03;;
51312;SDS011;37397;53.226;10.400;2023-04-24T12:25:33;4.68;;;3.25;;
51312;SDS011;37397;53.226;10.400;2023-04-24T12:30:30;5.82;;;3.38;;
51312;SDS011;37397;53.226;10.400;2023-04-24T12:33:02;4.65;;;3.15;;
51312;SDS011;37397;53.226;10.400;2023-04-24T12:35:29;5.20;;;3.30;;
51312;SDS011;37397;53.226;10.400;2023-04-24T12:38:07;5.30;;;3.17;;
51312;SDS011;37397;53.226;10.400;2023-04-24T12:40:35;4.90;;;3.28;;
51312;SDS011;37397;53.226;10.400;2023-04-24T12:43:02;4.47;;;3.05;;
51312;SDS011;37397;53.226;10.400;2023-04-24T12:45:38;8.82;;;3.63;;
51312;SDS011;37397;53.226;10.400;2023-04-24T12:48:05;9.50;;;3.22;;
51312;SDS011;37397;53.226;10.400;2023-04-24T12:50:31;4.90;;;2.88;;
51312;SDS011;37397;53.226;10.400;2023-04-24T12:52:58;4.43;;;3.03;;
51312;SDS011;37397;53.226;10.400;2023-04-24T12:55:25;7.07;;;2.95;;
51312;SDS011;37397;53.226;10.400;2023-04-24T12:57:51;9.40;;;3.15;;
51312;SDS011;37397;53.226;10.400;2023-04-24T13:00:19;6.07;;;2.97;;
51312;SDS011;37397;53.226;10.400;2023-04-24T13:02:46;5.18;;;2.78;;
51312;SDS011;37397;53.226;10.400;2023-04-24T13:05:12;5.05;;;2.88;;
51312;SDS011;37397;53.226;10.400;2023-04-24T13:07:40;3.60;;;2.50;;
51312;SDS011;37397;53.226;10.400;2023-04-24T13:10:06;4.82;;;2.83;;
51312;SDS011;37397;53.226;10.400;2023-04-24T13:12:34;4.93;;;2.67;;
51312;SDS011;37397;53.226;10.400;2023-04-24T13:15:01;3.85;;;2.33;;
51312;SDS011;37397;53.226;10.400;2023-04-24T13:17:27;4.05;;;2.30;;
51312;SDS011;37397;53.226;10.400;2023-04-24T13:19:54;4.30;;;2.55;;
51312;SDS011;37397;53.226;10.400;2023-04-24T13:22:21;3.05;;;2.00;;
51312;SDS011;37397;53.226;10.400;2023-04-24T13:24:47;3.55;;;2.10;;
51312;SDS011;37397;53.226;10.400;2023-04-24T13:27:17;3.05;;;2.08;;
51312;SDS011;37397;53.226;10.400;2023-04-24T13:29:44;3.63;;;1.83;;
51312;SDS011;37397;53.226;10.400;2023-04-24T13:32:11;3.15;;;2.10;;
51312;SDS011;37397;53.226;10.400;2023-04-24T13:34:38;2.95;;;2.10;;
51312;SDS011;37397;53.226;10.400;2023-04-24T13:37:04;2.80;;;1.80;;
51312;SDS011;37397;53.226;10.400;2023-04-24T13:39:31;4.35;;;1.88;;
51312;SDS011;37397;53.226;10.400;2023-04-24T13:41:58;2.70;;;1.80;;
51312;SDS011;37397;53.226;10.400;2023-04-24T13:44:26;1.95;;;1.70;;
51312;SDS011;37397;53.226;10.400;2023-04-24T13:46:53;4.32;;;2.00;;
51312;SDS011;37397;53.226;10.400;2023-04-24T13:49:23;2.30;;;1.73;;
51312;SDS011;37397;53.226;10.400;2023-04-24T13:51:53;2.65;;;1.90;;
51312;SDS011;37397;53.226;10.400;2023-04-24T13:54:21;4.45;;;1.95;;
51312;SDS011;37397;53.226;10.400;2023-04-24T13:56:49;1.80;;;1.60;;
51312;SDS011;37397;53.226;10.400;2023-04-24T13:59:16;2.53;;;1.90;;
51312;SDS011;37397;53.226;10.400;2023-04-24T14:01:43;2.72;;;2.13;;
51312;SDS011;37397;53.226;10.400;2023-04-24T14:04:11;4.78;;;2.10;;
51312;SDS011;37397;53.226;10.400;2023-04-24T14:06:38;2.80;;;2.00;;
51312;SDS011;37397;53.226;10.400;2023-04-24T14:09:05;3.90;;;2.35;;
51312;SDS011;37397;53.226;10.400;2023-04-24T14:11:33;2.10;;;1.90;;
51312;SDS011;37397;53.226;10.400;2023-04-24T14:14:00;2.15;;;1.80;;
51312;SDS011;37397;53.226;10.400;2023-04-24T14:16:26;3.20;;;1.88;;
51312;SDS011;37397;53.226;10.400;2023-04-24T14:18:54;2.05;;;1.85;;
51312;SDS011;37397;53.226;10.400;2023-04-24T14:21:20;2.20;;;1.77;;
51312;SDS011;37397;53.226;10.400;2023-04-24T14:23:47;2.22;;;2.03;;
51312;SDS011;37397;53.226;10.400;2023-04-24T14:26:13;4.43;;;2.15;;
51312;SDS011;37397;53.226;10.400;2023-04-24T14:28:40;4.47;;;2.10;;
51312;SDS011;37397;53.226;10.400;2023-04-24T14:31:06;4.50;;;2.20;;
51312;SDS011;37397;53.226;10.400;2023-04-24T14:33:34;5.95;;;2.22;;
51312;SDS011;37397;53.226;10.400;2023-04-24T14:36:00;3.30;;;2.00;;
51312;SDS011;37397;53.226;10.400;2023-04-24T14:38:28;2.30;;;1.73;;
51312;SDS011;37397;53.226;10.400;2023-04-24T14:40:56;3.40;;;1.80;;
51312;SDS011;37397;53.226;10.400;2023-04-24T14:43:33;2.90;;;2.00;;
51312;SDS011;37397;53.226;10.400;2023-04-24T14:46:01;2.47;;;1.70;;
51312;SDS011;37397;53.226;10.400;2023-04-24T14:48:28;2.90;;;1.65;;
51312;SDS011;37397;53.226;10.400;2023-04-24T14:50:55;1.83;;;1.50;;
51312;SDS011;37397;53.226;10.400;2023-04-24T14:53:21;1.60;;;1.40;;
51312;SDS011;37397;53.226;10.400;2023-04-24T14:55:47;1.30;;;1.20;;
51312;SDS011;37397;53.226;10.400;2023-04-24T14:58:14;1.95;;;1.30;;